Time;durP1;ratioP1;P1;durP2;ratioP2;P2;SDS_P1;SDS_P2;PMS_P1;PMS_P2;Temp;Humidity;BMP_temperature;BMP_pressure;BME280_temperature;BME280_humidity;BME280_pressure;Samples;Min_cycle;Max_cycle;Signal;HPM_P1;HPM_P2
2021/03/20 00:00:23;;;;;;;45.50;27.27;;;;;;;-3.31;75.01;96222.59;5077870;28;20021;-96
2021/03/20 00:02:50;;;;;;;40.58;25.15;;;;;;;-3.32;74.47;96221.06;5076836;28;20119;-96
2021/03/20 00:05:16;;;;;;;43.42;26.02;;;;;;;-3.87;75.46;96152.78;5077684;28;20028;-96
2021/03/20 00:07:43;;;;;;;47.60;27.30;;;;;;;-3.27;75.46;96228.69;5077740;28;20102;-96
2021/03/20 00:10:12;;;;;;;43.63;25.73;;;;;;;-3.72;75.32;96169.59;5077613;28;20029;-96
2021/03/20 00:12:38;;;;;;;45.17;25.85;;;;;;;-3.90;75.86;96131.53;5077679;28;20017;-96
2021/03/20 00:15:06;;;;;;;42.38;25.05;;;;;;;-3.96;76.44;96147.03;5077533;28;20074;-96
2021/03/20 00:17:31;;;;;;;42.53;25.10;;;;;;;-3.62;75.91;96200.78;5077333;28;20060;-96
2021/03/20 00:19:57;;;;;;;76.38;26.30;;;;;;;-4.33;76.54;96116.03;5077421;28;20104;-96
2021/03/20 00:22:22;;;;;;;43.08;24.60;;;;;;;-3.50;76.40;96227.03;5078577;28;20028;-96
2021/03/20 00:24:47;;;;;;;44.85;24.70;;;;;;;-4.19;76.75;96141.16;5077360;28;20315;-96
2021/03/20 00:27:13;;;;;;;39.88;22.77;;;;;;;-3.88;75.05;96209.66;5077278;28;20020;-96
2021/03/20 00:29:38;;;;;;;38.65;23.65;;;;;;;-4.25;75.73;96141.50;5077332;28;20029;-96
2021/03/20 00:32:04;;;;;;;38.97;23.80;;;;;;;-3.97;76.31;96182.66;5077292;28;20400;-96
2021/03/20 00:34:29;;;;;;;40.53;23.85;;;;;;;-4.10;75.82;96163.63;5077151;28;20024;-96
2021/03/20 00:36:56;;;;;;;44.25;25.23;;;;;;;-3.66;76.23;96242.47;5077248;28;20316;-96
2021/03/20 00:39:22;;;;;;;44.58;25.77;;;;;;;-4.01;75.03;96179.22;5077392;28;20038;-96
2021/03/20 00:41:47;;;;;;;43.50;25.83;;;;;;;-4.27;75.57;96164.19;5076979;28;20020;-96
2021/03/20 00:44:13;;;;;;;41.22;24.13;;;;;;;-3.75;75.33;96242.00;5076948;28;20047;-96
2021/03/20 00:46:39;;;;;;;41.67;25.08;;;;;;;-4.06;74.64;96192.81;5077064;28;20027;-96
2021/03/20 00:49:04;;;;;;;41.63;24.88;;;;;;;-4.27;75.46;96185.41;5076985;28;20035;-96
2021/03/20 00:51:30;;;;;;;41.50;24.83;;;;;;;-3.81;76.09;96243.47;5076576;28;20029;-96
2021/03/20 00:53:56;;;;;;;44.58;26.23;;;;;;;-4.56;75.63;96121.50;5076793;28;20037;-96
2021/03/20 00:56:21;;;;;;;45.88;24.77;;;;;;;-4.33;76.86;96166.44;5076732;28;20028;-96
2021/03/20 00:58:47;;;;;;;44.63;24.55;;;;;;;-4.26;76.45;96185.06;5076889;28;20025;-96
2021/03/20 01:01:22;;;;;;;39.10;23.73;;;;;;;-3.92;76.33;96237.31;5076730;28;20031;-96
2021/03/20 01:03:48;;;;;;;38.75;22.90;;;;;;;-4.13;77.16;96216.63;5076968;28;20032;-96
2021/03/20 01:06:32;;;;;;;36.67;23.90;;;;;;;-4.04;76.18;96247.06;5076780;28;20032;-96
2021/03/20 01:08:59;;;;;;;35.90;22.88;;;;;;;-4.73;76.59;96156.56;5076848;28;20416;-95
2021/03/20 01:11:28;;;;;;;39.25;23.08;;;;;;;-4.03;76.60;96239.88;5076515;28;20034;-96
2021/03/20 01:13:54;;;;;;;37.92;22.50;;;;;;;-4.04;76.70;96244.41;5076438;28;20021;-96
2021/03/20 01:16:20;;;;;;;33.85;21.08;;;;;;;-4.44;76.03;96170.09;5076643;28;20028;-96
2021/03/20 01:18:46;;;;;;;38.10;23.20;;;;;;;-3.99;76.08;96260.00;5076543;28;20075;-96
2021/03/20 01:21:12;;;;;;;35.15;22.05;;;;;;;-4.67;74.21;96149.06;5076598;28;20025;-96
2021/03/20 01:23:38;;;;;;;33.60;21.13;;;;;;;-4.05;73.17;96250.84;5076430;28;20412;-96
2021/03/20 01:26:05;;;;;;;36.03;20.75;;;;;;;-4.20;74.67;96222.66;5076325;28;20116;-96
2021/03/20 01:28:32;;;;;;;36.25;22.67;;;;;;;-4.52;74.22;96188.59;5076362;28;20080;-96
2021/03/20 01:30:59;;;;;;;38.60;22.90;;;;;;;-4.05;74.14;96250.84;5076296;28;20024;-96
2021/03/20 01:33:25;;;;;;;40.53;23.33;;;;;;;-4.59;75.12;96146.09;5076600;28;20037;-96
2021/03/20 01:35:51;;;;;;;39.85;22.48;;;;;;;-3.91;75.50;96244.91;5076221;28;20062;-96
2021/03/20 01:38:17;;;;;;;39.70;21.55;;;;;;;-4.33;76.20;96169.06;5076176;28;20028;-96
2021/03/20 01:40:46;;;;;;;34.63;21.30;;;;;;;-4.05;74.50;96228.84;5076179;28;20027;-96
2021/03/20 01:43:13;;;;;;;30.38;19.17;;;;;;;-4.02;74.55;96255.41;5076148;28;20028;-96
2021/03/20 01:45:39;;;;;;;30.35;20.02;;;;;;;-4.00;74.41;96260.34;5076284;28;20024;-96
2021/03/20 01:48:27;;;;;;;32.50;20.50;;;;;;;-3.98;74.58;96252.81;5076255;28;20078;-96
2021/03/20 01:50:57;;;;;;;36.80;20.15;;;;;;;-4.09;75.15;96252.69;5076018;28;20363;-96
2021/03/20 01:53:50;;;;;;;31.98;20.02;;;;;;;-4.25;75.18;96250.25;5075871;28;20115;-96
2021/03/20 01:56:19;;;;;;;35.50;20.52;;;;;;;-4.66;75.45;96190.34;5076139;28;20032;-96
2021/03/20 01:58:48;;;;;;;32.53;19.33;;;;;;;-4.35;75.09;96255.47;5076030;28;20030;-96
2021/03/20 02:01:22;;;;;;;32.53;19.73;;;;;;;-4.39;74.61;96254.66;5076100;28;20316;-96
2021/03/20 02:03:49;;;;;;;31.98;19.98;;;;;;;-4.45;76.27;96243.59;5075952;28;20021;-96
2021/03/20 02:06:16;;;;;;;34.38;19.60;;;;;;;-4.79;75.73;96190.59;5076407;28;20028;-95
2021/03/20 02:08:44;;;;;;;32.55;19.58;;;;;;;-4.51;76.06;96253.78;5075950;28;20043;-95
2021/03/20 02:11:30;;;;;;;33.38;19.63;;;;;;;-4.39;77.80;96255.41;5075805;28;20016;-96
2021/03/20 02:13:58;;;;;;;32.50;19.35;;;;;;;-4.37;77.19;96266.41;5075883;28;20327;-96
2021/03/20 02:16:53;;;;;;;30.90;19.20;;;;;;;-4.29;76.82;96259.31;5075997;28;20039;-96
2021/03/20 02:20:00;;;;;;;30.85;18.63;;;;;;;-4.61;76.10;96243.03;5075880;28;20025;-96
2021/03/20 02:23:00;;;;;;;31.50;19.40;;;;;;;-4.55;76.67;96268.88;5075870;28;20102;-96
2021/03/20 02:26:06;;;;;;;33.42;18.70;;;;;;;-5.22;76.45;96189.31;5076538;28;20372;-96
2021/03/20 02:28:34;;;;;;;31.13;19.50;;;;;;;-4.56;77.82;96269.22;5049230;28;20413;-96
2021/03/20 02:31:23;;;;;;;32.55;19.05;;;;;;;-4.60;76.97;96271.84;5079413;28;20035;-96
2021/03/20 02:34:13;;;;;;;29.05;17.90;;;;;;;-4.60;77.18;96271.84;5079613;28;20017;-96
2021/03/20 02:36:58;;;;;;;27.00;18.65;;;;;;;-4.71;76.29;96265.63;5079395;28;20052;-96
2021/03/20 02:39:43;;;;;;;37.15;20.10;;;;;;;-5.04;78.01;96214.13;5079396;28;20032;-96
2021/03/20 02:42:18;;;;;;;31.02;19.60;;;;;;;-4.58;76.33;96269.59;5079880;28;20115;-96
2021/03/20 02:44:51;;;;;;;35.53;20.20;;;;;;;-4.73;76.82;96240.63;5079565;28;20020;-96
2021/03/20 02:47:25;;;;;;;37.90;21.05;;;;;;;-4.60;76.37;96274.47;5079327;28;20051;-96
2021/03/20 02:49:59;;;;;;;36.83;21.48;;;;;;;-4.93;76.25;96210.84;5079073;28;20055;-96
2021/03/20 02:52:28;;;;;;;35.55;20.55;;;;;;;-4.51;74.69;96268.91;5079915;28;20045;-96
2021/03/20 02:54:59;;;;;;;32.42;20.75;;;;;;;-4.55;75.50;96274.16;5079138;28;20158;-96
2021/03/20 02:57:36;;;;;;;46.50;21.00;;;;;;;-5.11;76.55;96186.78;5079270;28;20032;-96
2021/03/20 03:00:11;;;;;;;34.70;21.70;;;;;;;-4.54;75.38;96278.34;5079083;28;20036;-96
2021/03/20 03:02:39;;;;;;;33.05;19.95;;;;;;;-4.96;75.65;96214.22;5079573;28;20024;-96
2021/03/20 03:05:13;;;;;;;32.70;20.55;;;;;;;-4.93;75.54;96232.03;5078893;28;20024;-96
2021/03/20 03:07:48;;;;;;;36.17;21.02;;;;;;;-4.90;75.89;96255.94;5079051;28;20027;-96
2021/03/20 03:10:20;;;;;;;36.50;21.27;;;;;;;-4.64;75.91;96286.16;5078926;28;20024;-96
2021/03/20 03:12:53;;;;;;;36.33;19.98;;;;;;;-5.19;77.07;96204.47;5078935;28;20062;-96
2021/03/20 03:15:28;;;;;;;31.42;19.20;;;;;;;-4.92;76.54;96250.22;5078642;28;20086;-96
2021/03/20 03:18:04;;;;;;;35.35;20.77;;;;;;;-4.79;75.75;96286.00;5078726;28;20028;-95
2021/03/20 03:20:35;;;;;;;32.00;19.70;;;;;;;-5.27;76.69;96230.09;5078561;28;20025;-96
2021/03/20 03:23:11;;;;;;;35.22;20.58;;;;;;;-5.21;77.57;96229.78;5078639;28;20074;-96
2021/03/20 03:25:41;;;;;;;32.53;20.58;;;;;;;-5.36;77.62;96229.59;5078599;28;20098;-96
2021/03/20 03:28:09;;;;;;;38.13;22.30;;;;;;;-5.01;76.99;96257.66;5079227;28;20032;-96
2021/03/20 03:30:35;;;;;;;42.45;23.23;;;;;;;-5.09;76.79;96245.47;5078463;28;20028;-96
2021/03/20 03:33:11;;;;;;;40.75;22.95;;;;;;;-5.15;77.22;96236.31;5078329;28;20025;-96
2021/03/20 03:35:43;;;;;;;57.30;26.25;;;;;;;-4.73;78.72;96299.72;5078312;28;20021;-95
2021/03/20 03:38:45;;;;;;;82.53;26.75;;;;;;;-4.73;77.66;96298.94;5078257;28;20024;-95
2021/03/20 03:41:23;;;;;;;45.38;23.70;;;;;;;-4.85;77.28;96305.97;5078130;28;20025;-95
2021/03/20 03:43:51;;;;;;;40.20;22.90;;;;;;;-4.88;77.00;96303.28;5078314;28;20036;-95
2021/03/20 03:46:21;;;;;;;40.97;23.45;;;;;;;-4.88;76.20;96305.94;5078163;28;20103;-96
2021/03/20 03:48:52;;;;;;;45.40;23.33;;;;;;;-4.99;77.31;96318.28;5078109;28;20020;-95
2021/03/20 03:51:18;;;;;;;43.08;24.48;;;;;;;-4.95;77.75;96311.91;5077978;28;20120;-96
2021/03/20 03:53:44;;;;;;;42.88;24.95;;;;;;;-5.50;78.37;96241.84;5078166;28;20044;-96
2021/03/20 03:56:22;;;;;;;41.20;23.73;;;;;;;-5.04;78.22;96316.69;5077848;28;20359;-96
2021/03/20 03:59:04;;;;;;;39.92;22.15;;;;;;;-5.28;76.43;96300.06;5077863;28;20036;-96
2021/03/20 04:01:50;;;;;;;42.22;23.20;;;;;;;-5.12;77.86;96318.47;5077982;28;20103;-95
2021/03/20 04:04:34;;;;;;;40.45;21.80;;;;;;;-5.06;76.16;96317.06;5067572;28;20044;-95
2021/03/20 04:07:24;;;;;;;38.85;23.27;;;;;;;-5.05;78.19;96325.75;5077927;28;20041;-95
2021/03/20 04:10:10;;;;;;;41.08;23.73;;;;;;;-5.14;76.48;96310.09;5077834;28;20024;-95
2021/03/20 04:13:10;;;;;;;45.15;24.83;;;;;;;-5.02;78.37;96311.78;5077096;28;20429;-96
2021/03/20 04:15:55;;;;;;;38.38;22.17;;;;;;;-5.33;76.77;96278.41;5074882;28;20036;-96
2021/03/20 04:18:34;;;;;;;38.70;21.58;;;;;;;-5.08;76.97;96324.56;5077822;28;20020;-95
2021/03/20 04:21:19;;;;;;;36.67;21.85;;;;;;;-5.39;76.17;96274.53;5077457;28;20024;-95
2021/03/20 04:24:01;;;;;;;44.70;22.63;;;;;;;-5.49;76.98;96261.91;5077394;28;20021;-95
2021/03/20 04:26:39;;;;;;;38.35;20.83;;;;;;;-5.08;75.98;96340.47;5077436;28;20028;-95
2021/03/20 04:29:09;;;;;;;39.00;21.75;;;;;;;-5.25;76.44;96332.25;5077470;28;20043;-95
2021/03/20 04:31:48;;;;;;;38.50;22.90;;;;;;;-5.22;75.58;96334.97;5077294;28;20111;-95
2021/03/20 04:34:28;;;;;;;38.50;23.17;;;;;;;-5.19;76.44;96341.44;5077137;28;20021;-95
2021/03/20 04:36:59;;;;;;;59.38;22.98;;;;;;;-5.63;76.92;96270.41;5077227;28;20028;-95
2021/03/20 04:39:29;;;;;;;98.07;25.60;;;;;;;-5.16;75.99;96341.50;5077064;28;20024;-95
2021/03/20 04:41:56;;;;;;;36.10;21.95;;;;;;;-5.78;75.74;96237.66;5077209;28;20040;-96
2021/03/20 04:44:22;;;;;;;50.25;22.65;;;;;;;-5.57;77.03;96269.75;5076896;28;20031;-96
2021/03/20 04:46:48;;;;;;;37.00;22.48;;;;;;;-5.04;77.02;96349.25;5077027;28;20032;-94
2021/03/20 04:49:47;;;;;;;35.03;21.13;;;;;;;-5.11;75.37;96349.16;5076735;28;20020;-96
2021/03/20 04:52:29;;;;;;;37.75;21.65;;;;;;;-5.21;75.97;96333.84;5076650;28;20049;-96
2021/03/20 04:54:57;;;;;;;37.28;20.60;;;;;;;-5.03;74.72;96353.41;5076850;28;20327;-96
2021/03/20 04:57:38;;;;;;;36.42;20.92;;;;;;;-5.21;74.95;96323.25;5076713;28;20033;-96
2021/03/20 05:00:12;;;;;;;32.92;20.63;;;;;;;-5.15;75.18;96318.44;5076702;28;20077;-96
2021/03/20 05:03:12;;;;;;;33.95;21.02;;;;;;;-4.81;74.91;96359.78;5076890;28;20028;-96
2021/03/20 05:05:53;;;;;;;35.58;20.27;;;;;;;-4.88;75.28;96366.88;5068902;28;20032;-96
2021/03/20 05:08:25;;;;;;;33.60;19.73;;;;;;;-5.24;75.16;96318.66;5076755;28;20020;-96
2021/03/20 05:10:56;;;;;;;38.28;21.33;;;;;;;-5.08;75.10;96334.41;5076511;28;20039;-96
2021/03/20 05:13:35;;;;;;;35.17;20.15;;;;;;;-4.80;74.98;96371.91;5076593;28;20028;-96
2021/03/20 05:16:16;;;;;;;36.33;20.58;;;;;;;-4.88;74.95;96378.25;5076528;28;20081;-96
2021/03/20 05:18:51;;;;;;;35.08;21.30;;;;;;;-5.20;75.36;96327.44;5076477;28;20529;-96
2021/03/20 05:21:21;;;;;;;37.78;21.77;;;;;;;-5.04;74.01;96351.13;5076505;28;20107;-95
2021/03/20 05:23:47;;;;;;;35.50;22.13;;;;;;;-5.07;75.80;96328.75;5076501;28;20086;-96
2021/03/20 05:26:13;;;;;;;39.08;22.73;;;;;;;-4.44;74.76;96388.31;5076430;28;20032;-96
2021/03/20 05:28:39;;;;;;;35.97;22.23;;;;;;;-4.49;74.27;96394.69;5076358;28;20102;-96
2021/03/20 05:31:05;;;;;;;36.30;22.15;;;;;;;-4.40;73.94;96391.03;5076254;28;20025;-96
2021/03/20 05:33:32;;;;;;;58.67;22.92;;;;;;;-5.14;73.82;96299.50;5076169;28;20066;-96
2021/03/20 05:35:57;;;;;;;37.75;23.08;;;;;;;-5.12;74.53;96301.81;5076360;28;20031;-96
2021/03/20 05:38:23;;;;;;;38.80;23.38;;;;;;;-4.86;74.67;96322.22;5076278;28;20025;-96
2021/03/20 05:40:48;;;;;;;34.38;22.00;;;;;;;-4.76;74.60;96330.31;5076102;28;20120;-95
2021/03/20 05:43:27;;;;;;;39.20;21.95;;;;;;;-4.35;73.15;96404.75;5076766;28;20119;-95
2021/03/20 05:46:15;;;;;;;37.08;21.58;;;;;;;-4.34;72.95;96400.22;5076182;28;20036;-96
2021/03/20 05:49:00;;;;;;;34.90;21.30;;;;;;;-4.41;72.94;96416.78;5076183;28;20031;-96
2021/03/20 05:51:58;;;;;;;33.63;20.92;;;;;;;-4.50;73.68;96393.19;5076070;28;20032;-96
2021/03/20 05:54:43;;;;;;;37.80;22.52;;;;;;;-4.27;71.78;96414.31;5075363;28;20052;-96
2021/03/20 05:57:31;;;;;;;35.45;22.05;;;;;;;-4.30;72.17;96417.69;5076024;28;20021;-95
2021/03/20 06:00:28;;;;;;;33.38;20.13;;;;;;;-4.30;72.97;96420.34;5076082;28;20417;-96
2021/03/20 06:03:17;;;;;;;36.30;20.20;;;;;;;-4.41;73.05;96398.22;5080203;28;20012;-96
2021/03/20 06:05:55;;;;;;;41.85;22.58;;;;;;;-4.21;71.43;96422.72;5080318;28;20412;-96
2021/03/20 06:08:46;;;;;;;39.88;22.33;;;;;;;-4.17;71.77;96420.13;5080522;28;20324;-96
2021/03/20 06:11:43;;;;;;;35.83;21.98;;;;;;;-4.06;72.65;96424.44;5080710;28;20324;-95
2021/03/20 06:14:39;;;;;;;37.28;21.15;;;;;;;-4.04;72.86;96429.41;5080546;28;20063;-95
2021/03/20 06:17:28;;;;;;;30.08;19.00;;;;;;;-3.98;71.45;96428.72;5080130;28;20051;-96
2021/03/20 06:20:06;;;;;;;33.92;19.73;;;;;;;-4.24;72.57;96381.00;5076681;28;20021;-95
2021/03/20 06:22:54;;;;;;;36.72;20.95;;;;;;;-3.55;72.68;96433.75;5059989;28;20064;-95
2021/03/20 06:25:48;;;;;;;40.47;23.30;;;;;;;-3.63;71.35;96432.91;5060150;28;20387;-94
2021/03/20 06:28:17;;;;;;;37.83;20.73;;;;;;;-3.45;71.60;96441.84;5060150;28;20094;-94
2021/03/20 06:30:55;;;;;;;35.17;20.08;;;;;;;-3.51;71.49;96445.94;5059806;28;20323;-94
2021/03/20 06:33:32;;;;;;;32.38;18.80;;;;;;;-3.44;71.08;96429.31;5077756;28;20098;-94
2021/03/20 06:36:08;;;;;;;31.95;19.75;;;;;;;-3.92;69.13;96373.44;5096516;28;20024;-94
2021/03/20 06:38:38;;;;;;;33.42;21.95;;;;;;;-3.44;70.46;96450.56;5079437;28;20090;-95
2021/03/20 06:41:38;;;;;;;32.10;20.58;;;;;;;-3.49;70.70;96464.16;5079422;28;20082;-93
2021/03/20 06:44:22;;;;;;;32.78;19.17;;;;;;;-3.39;72.28;96455.56;5079302;28;20020;-93
2021/03/20 06:46:49;;;;;;;28.38;18.85;;;;;;;-3.60;70.37;96426.88;5079277;28;20111;-94
2021/03/20 06:49:25;;;;;;;30.98;19.65;;;;;;;-3.66;69.46;96411.63;5079070;28;20028;-93
2021/03/20 06:51:52;;;;;;;31.10;17.63;;;;;;;-3.66;69.14;96409.75;5095947;28;20055;-95
2021/03/20 06:54:20;;;;;;;29.60;18.90;;;;;;;-3.15;71.76;96456.91;5079184;28;20086;-95
2021/03/20 06:56:49;;;;;;;32.00;20.02;;;;;;;-3.75;71.68;96361.47;5078966;28;20024;-94
2021/03/20 06:59:14;;;;;;;29.08;18.38;;;;;;;-3.74;69.01;96386.88;5095972;28;20052;-93
2021/03/20 07:01:49;;;;;;;31.42;19.25;;;;;;;-4.00;68.94;96361.19;5080001;28;20025;-94
2021/03/20 07:04:47;;;;;;;32.92;19.85;;;;;;;-3.23;69.85;96463.31;5079044;28;20035;-96
2021/03/20 07:07:22;;;;;;;34.28;21.02;;;;;;;-3.61;69.56;96409.41;5078847;28;20378;-96
2021/03/20 07:09:51;;;;;;;31.83;19.88;;;;;;;-3.12;69.19;96469.50;5079293;28;20052;-96
2021/03/20 07:12:23;;;;;;;35.50;20.75;;;;;;;-3.57;70.01;96386.31;5081838;28;20436;-96
2021/03/20 07:14:54;;;;;;;32.05;21.15;;;;;;;-3.42;70.99;96408.47;5085788;28;20028;-96
2021/03/20 07:17:26;;;;;;;31.05;20.95;;;;;;;-2.79;71.20;96471.31;5100837;28;20035;-96
2021/03/20 07:19:54;;;;;;;35.42;22.23;;;;;;;-2.74;70.65;96468.31;5082385;28;20020;-96
2021/03/20 07:22:35;;;;;;;33.78;21.45;;;;;;;-3.11;69.31;96430.38;5082669;28;20024;-96
2021/03/20 07:25:16;;;;;;;38.75;23.00;;;;;;;-2.66;70.78;96469.91;5081549;28;20032;-96
2021/03/20 07:27:41;;;;;;;;;;;;;;;-2.43;69.55;96477.66;5085273;28;20421;-96
2021/03/20 07:30:29;;;;;;;40.40;22.63;;;;;;;-2.83;68.70;96435.16;5083220;28;19920;-96
2021/03/20 07:32:55;;;;;;;40.40;24.25;;;;;;;-2.74;70.61;96439.06;5085890;28;20066;-96
2021/03/20 07:35:39;;;;;;;38.95;23.58;;;;;;;-2.12;69.92;96486.25;5085460;28;20098;-96
2021/03/20 07:38:21;;;;;;;36.00;23.13;;;;;;;-1.93;69.33;96488.63;5081038;28;20119;-96
2021/03/20 07:40:47;;;;;;;37.53;22.10;;;;;;;-2.27;67.21;96436.72;5080348;28;20021;-95
2021/03/20 07:43:22;;;;;;;46.65;26.98;;;;;;;-2.68;67.54;96421.63;5078187;28;20028;-95
2021/03/20 07:45:49;;;;;;;44.15;26.13;;;;;;;-2.49;69.22;96417.19;5095729;28;20130;-96
2021/03/20 07:48:22;;;;;;;41.60;25.38;;;;;;;-1.98;67.88;96440.28;5078700;28;20024;-96
2021/03/20 07:51:00;;;;;;;34.85;21.50;;;;;;;-1.82;66.21;96480.69;5079855;28;20025;-96
2021/03/20 07:53:27;;;;;;;39.92;23.92;;;;;;;-1.44;66.97;96491.88;5077956;28;20102;-95
2021/03/20 07:56:04;;;;;;;37.10;21.85;;;;;;;-1.22;64.84;96493.50;5079649;28;20058;-96
2021/03/20 07:58:38;;;;;;;22.98;15.68;;;;;;;-1.11;63.43;96498.84;5078074;28;20078;-96
2021/03/20 08:01:12;;;;;;;22.90;15.55;;;;;;;-1.27;61.30;96499.19;5077698;28;20031;-95
2021/03/20 08:03:54;;;;;;;28.17;17.23;;;;;;;-1.07;64.20;96511.03;5077838;28;20047;-95
2021/03/20 08:06:26;;;;;;;28.77;18.48;;;;;;;-1.06;63.29;96501.91;5077746;28;20483;-95
2021/03/20 08:09:24;;;;;;;28.05;17.60;;;;;;;-0.96;62.42;96502.28;5077842;28;20104;-96
2021/03/20 08:11:59;;;;;;;14.48;9.88;;;;;;;-0.85;60.73;96506.53;5077727;28;20029;-96
2021/03/20 08:14:47;;;;;;;15.25;9.32;;;;;;;-0.78;60.14;96494.31;5078471;28;20028;-96
2021/03/20 08:17:17;;;;;;;14.13;9.75;;;;;;;-1.00;58.48;96450.88;5077703;28;20039;-94
2021/03/20 08:19:44;;;;;;;15.23;10.00;;;;;;;-0.92;58.11;96453.16;5082012;28;20020;-96
2021/03/20 08:22:41;;;;;;;14.95;9.57;;;;;;;-0.86;58.61;96464.97;5114033;28;20073;-96
2021/03/20 08:28:40;;;;;;;15.27;9.63;;;;;;;-0.48;57.15;96508.09;5058607;28;20043;-95
2021/03/20 08:31:22;;;;;;;11.98;8.88;;;;;;;-0.53;55.18;96497.78;5066732;28;20411;-95
2021/03/20 08:34:00;;;;;;;16.13;9.43;;;;;;;-0.61;56.76;96515.69;5095566;28;20054;-94
2021/03/20 08:37:05;;;;;;;13.73;9.35;;;;;;;-1.00;57.61;96437.53;5076901;28;20029;-95
2021/03/20 08:39:46;;;;;;;19.75;10.20;;;;;;;-0.40;56.11;96522.19;5033279;28;20032;-94
2021/03/20 08:42:33;;;;;;;12.98;9.40;;;;;;;-0.56;56.00;96525.22;5081798;28;20400;-96
2021/03/20 08:45:10;;;;;;;13.43;8.75;;;;;;;-0.56;56.93;96525.22;5090116;28;20043;-96
2021/03/20 08:47:51;;;;;;;13.13;9.10;;;;;;;-0.32;56.45;96521.00;5084109;28;20054;-96
2021/03/20 08:50:34;;;;;;;14.32;9.43;;;;;;;-0.22;55.44;96519.50;5089095;28;20040;-96
2021/03/20 08:53:21;;;;;;;13.27;8.82;;;;;;;-0.37;55.20;96516.84;5078894;28;20044;-96
2021/03/20 08:56:24;;;;;;;18.15;10.32;;;;;;;-0.25;55.60;96526.38;5083865;28;20025;-93
2021/03/20 08:59:06;;;;;;;12.98;8.38;;;;;;;-0.77;55.42;96429.16;5076276;28;20078;-94
2021/03/20 09:01:38;;;;;;;12.52;8.80;;;;;;;-0.40;53.73;96484.81;5076450;28;20055;-92
2021/03/20 09:04:17;;;;;;;12.80;8.27;;;;;;;-0.13;54.88;96525.97;5093447;28;20024;-94
2021/03/20 09:06:47;;;;;;;9.88;8.10;;;;;;;-0.08;53.66;96525.59;5076722;28;20052;-94
2021/03/20 09:09:39;;;;;;;14.80;8.38;;;;;;;-0.23;54.28;96531.31;5076385;28;20020;-92
2021/03/20 09:12:40;;;;;;;12.70;8.98;;;;;;;-0.05;53.83;96538.19;5076424;28;20074;-90
2021/03/20 09:15:19;;;;;;;;;;;;;;;-0.02;54.72;96539.31;5077151;28;20369;-93
2021/03/20 09:17:45;;;;;;;12.95;8.85;;;;;;;0.17;54.49;96546.94;5076402;28;19908;-92
2021/03/20 09:20:37;;;;;;;10.85;8.35;;;;;;;-0.62;54.40;96452.03;5076231;28;20020;-92
2021/03/20 09:23:04;;;;;;;13.10;8.60;;;;;;;-0.26;54.16;96511.50;5076533;28;20040;-93
2021/03/20 09:25:42;;;;;;;11.52;8.13;;;;;;;0.25;54.58;96543.09;5076426;28;20052;-93
2021/03/20 09:28:27;;;;;;;12.30;8.43;;;;;;;-0.10;53.03;96487.84;5077045;28;20039;-96
2021/03/20 09:30:57;;;;;;;14.13;8.73;;;;;;;0.05;53.04;96541.22;5076903;28;20021;-96
2021/03/20 09:33:25;;;;;;;14.95;8.05;;;;;;;0.12;53.42;96546.56;5078437;28;20028;-96
2021/03/20 09:35:54;;;;;;;19.48;8.95;;;;;;;-0.44;52.66;96481.38;5077501;28;20384;-96
2021/03/20 09:38:55;;;;;;;15.77;9.23;;;;;;;-0.15;54.39;96506.16;5079073;28;20021;-96
2021/03/20 09:41:21;;;;;;;10.77;8.55;;;;;;;0.08;51.37;96543.88;5047917;28;20037;-96
2021/03/20 09:43:59;;;;;;;13.50;8.85;;;;;;;0.08;53.70;96543.88;5080263;28;20033;-96
2021/03/20 09:46:44;;;;;;;13.50;8.43;;;;;;;0.46;53.53;96541.50;5084296;28;20099;-96
2021/03/20 09:49:10;;;;;;;13.13;9.05;;;;;;;0.63;53.72;96551.38;5085376;28;20028;-96
2021/03/20 09:51:51;;;;;;;11.70;8.10;;;;;;;0.32;51.89;96549.56;5083652;28;20028;-96
2021/03/20 09:54:25;;;;;;;12.70;8.05;;;;;;;0.51;52.98;96544.53;5083951;28;20039;-95
2021/03/20 09:56:51;;;;;;;12.18;8.63;;;;;;;0.24;52.14;96517.50;5084013;28;20025;-96
2021/03/20 09:59:37;;;;;;;13.25;8.40;;;;;;;0.40;52.06;96551.06;5083212;28;20047;-96
2021/03/20 10:02:08;;;;;;;13.00;8.38;;;;;;;0.73;51.05;96537.22;5072781;28;20037;-96
2021/03/20 10:04:51;;;;;;;11.98;8.68;;;;;;;0.49;51.97;96496.06;5076362;28;20320;-94
2021/03/20 10:07:22;;;;;;;10.45;7.88;;;;;;;0.69;49.97;96541.84;5077124;28;20024;-93
2021/03/20 10:10:15;;;;;;;14.40;9.10;;;;;;;0.79;51.91;96545.59;5078529;28;20473;-95
2021/03/20 10:12:42;;;;;;;11.85;8.07;;;;;;;0.88;51.41;96548.63;5106226;28;20312;-96
2021/03/20 10:15:17;;;;;;;13.18;8.20;;;;;;;1.16;50.85;96552.28;5102066;28;20047;-94
2021/03/20 10:18:12;;;;;;;12.65;8.20;;;;;;;0.76;49.77;96552.50;5106268;28;20035;-95
2021/03/20 10:20:43;;;;;;;10.07;7.55;;;;;;;0.78;50.27;96554.78;5108486;28;20025;-94
2021/03/20 10:23:14;;;;;;;13.32;8.20;;;;;;;1.02;49.42;96537.09;5108656;28;20024;-93
2021/03/20 10:25:47;;;;;;;12.27;7.82;;;;;;;0.71;48.44;96477.25;5102142;28;20043;-95
2021/03/20 10:28:15;;;;;;;12.85;8.30;;;;;;;0.54;49.19;96465.50;5100410;28;20111;-96
2021/03/20 10:34:12;;;;;;;12.10;8.48;;;;;;;1.73;48.82;96549.25;5094938;28;20070;-96
2021/03/20 10:36:43;;;;;;;13.68;8.63;;;;;;;1.12;48.19;96466.72;5073674;28;20456;-94
2021/03/20 10:40:06;;;;;;;12.48;8.73;;;;;;;0.03;47.27;96335.19;5071847;28;20042;-95
2021/03/20 10:42:36;;;;;;;12.23;9.07;;;;;;;1.25;47.03;96537.34;5048952;28;20037;-96
2021/03/20 10:45:15;;;;;;;12.23;9.15;;;;;;;1.57;48.27;96541.72;5043898;28;20036;-96
2021/03/20 10:47:43;;;;;;;12.90;9.63;;;;;;;1.83;47.94;96551.84;5057006;28;20036;-96
2021/03/20 10:50:14;;;;;;;12.65;9.50;;;;;;;1.66;47.35;96544.72;5082869;28;20082;-95
2021/03/20 10:52:42;;;;;;;13.80;9.48;;;;;;;1.49;47.66;96514.25;5054174;28;20427;-96
2021/03/20 10:55:21;;;;;;;14.07;9.77;;;;;;;1.97;46.97;96534.91;5049892;28;20029;-95
2021/03/20 10:57:48;;;;;;;12.95;9.35;;;;;;;2.47;47.57;96537.09;5048880;28;20364;-95
2021/03/20 11:00:19;;;;;;;11.70;9.93;;;;;;;2.61;46.22;96536.19;5044949;28;20021;-95
2021/03/20 11:02:45;;;;;;;12.80;10.02;;;;;;;2.37;46.49;96540.63;5044786;28;20120;-95
2021/03/20 11:05:10;;;;;;;13.73;9.68;;;;;;;2.47;44.94;96529.03;5049580;28;20035;-96
2021/03/20 11:07:46;;;;;;;14.20;10.80;;;;;;;2.58;46.29;96491.38;5043427;28;20075;-96
2021/03/20 11:10:13;;;;;;;11.60;8.35;;;;;;;2.01;42.14;96465.94;5044623;28;20045;-94
2021/03/20 11:12:39;;;;;;;12.10;9.27;;;;;;;1.74;44.92;96483.81;5055847;28;20024;-96
2021/03/20 11:15:05;;;;;;;13.88;9.45;;;;;;;2.04;44.66;96475.13;5063837;28;20093;-96
2021/03/20 11:17:33;;;;;;;14.15;9.75;;;;;;;2.61;45.90;96530.81;5085966;28;20103;-96
2021/03/20 11:20:01;;;;;;;14.52;9.05;;;;;;;2.71;44.47;96527.22;5092534;28;20020;-92
2021/03/20 11:22:30;;;;;;;11.30;8.57;;;;;;;2.50;45.28;96474.59;5078913;28;20024;-93
2021/03/20 11:24:58;;;;;;;12.13;8.65;;;;;;;2.66;43.16;96529.59;5078657;28;20036;-92
2021/03/20 11:27:30;;;;;;;14.75;9.35;;;;;;;3.05;45.74;96524.53;5080623;28;20035;-96
2021/03/20 11:30:18;;;;;;;11.55;8.02;;;;;;;2.89;43.29;96474.13;5078516;28;20033;-92
2021/03/20 11:32:46;;;;;;;16.02;8.77;;;;;;;2.80;43.00;96476.53;5077850;28;20040;-93
2021/03/20 11:35:35;;;;;;;12.25;8.02;;;;;;;2.77;43.43;96516.81;5078220;28;20085;-92
2021/03/20 11:38:02;;;;;;;10.43;8.10;;;;;;;2.84;45.02;96519.44;5095042;28;20085;-93
2021/03/20 11:40:30;;;;;;;12.65;8.55;;;;;;;2.03;43.87;96417.34;5078629;28;20024;-94
2021/03/20 11:42:59;;;;;;;19.38;8.48;;;;;;;2.65;44.77;96416.19;5078845;28;20039;-94
2021/03/20 11:45:27;;;;;;;11.10;8.57;;;;;;;2.75;43.44;96454.75;5078883;28;20029;-95
2021/03/20 11:47:56;;;;;;;12.10;8.60;;;;;;;3.09;43.97;96455.47;5080167;28;20036;-96
2021/03/20 11:50:36;;;;;;;12.00;8.02;;;;;;;2.93;43.73;96494.78;5080954;28;20024;-93
2021/03/20 11:53:27;;;;;;;19.23;9.05;;;;;;;3.31;69.04;96492.72;5082523;28;21468;-91
2021/03/20 11:55:56;;;;;;;10.52;8.15;;;;;;;3.24;60.96;96477.47;5106584;28;20419;-94
2021/03/20 11:58:25;;;;;;;13.93;8.70;;;;;;;3.32;46.04;96491.56;5101559;28;20411;-95
2021/03/20 12:00:53;;;;;;;12.20;8.35;;;;;;;2.91;44.30;96414.69;5110323;28;20050;-96
2021/03/20 12:03:22;;;;;;;12.60;8.15;;;;;;;3.32;43.24;96486.19;5105847;28;20030;-95
2021/03/20 12:05:53;;;;;;;11.25;8.38;;;;;;;3.10;44.42;96493.78;5100267;28;20027;-95